Merritt Island, FL (32953)

1:36 PM EDT on September 03, 2015 (GMT -0400)
Waterway Manor | | Change Station
CLOSE
Current Station
Personal Weather Station
Location: Merritt Island, FL
Elevation: 16 ft
Nearby Weather Stations

Elev 16 ft 28.39 °N, 80.70 °W | Updated 45 seconds ago

Clear
Clear
90.8 °F
Feels Like 104 °F
N
10.0
Wind Variable Wind from WNW
Gusts 11.0 mph

Today
High -- | Low -- °F
--% Chance of Precip.
Yesterday
High -- | Low -- °F
Precip. -- in
7:01 AM 7:42 PM
Waning Gibbous, 68% visible
Pressure 29.96 in
Visibility 10.0 miles
Clouds Clear
Heat Index 104 °F
Dew Point 76 °F
Humidity 63%
Rainfall 0.00 in
Snow Depth Not available.
UV 14 out of 12
Pollen 7.00 out of 12
Air Quality Not available.
Flu Activity Not available.
METAR KXMR 031658Z AUTO VRB04KT 10SM CLR 35/25 A2995 RMK AO2 SLP145 T03510249 $
Pressure 29.96 in
Visibility 10.0 miles
Clouds Clear
Heat Index 104 °F
Dew Point 76 °F
Humidity 63%
Rainfall 0.00 in
Snow Depth Not available.
UV 14 out of 12
Pollen 7.00 out of 12
Air Quality Not available.
Flu Activity Not available.
METAR KXMR 031658Z AUTO VRB04KT 10SM CLR 35/25 A2995 RMK AO2 SLP145 T03510249 $

10-Day Weather Forecast

×

Almanac

Astronomy

Sep. 03, 2015 Rise Set
Actual Time
Civil Twilight
Nautical Twilight
Astronomical Twilight
Moon
Length of Visible Light
Length of Day
Tomorrow will be .
, % of the Moon is Illuminated

Today's Extremes

State Highs State Lows

Community

WunderPhotos

Upload Photos

1,851,991 photos uploaded!

WunderBlogs® & News

Nearby

Air Quality

  Air Quality AQ Index Pollutant
Not available.

Snow Depth

Station Depth Elevation

Earthquake Activity

City Distance Mag. Time & Date
Minimum magnitude displayed is 2.5.

Coastal Water Temperatures

Place Temperature

Stations

Nearby Weather Stations

Station Location Temp. Windchill Dew Point Humidity Wind Precip. Elev Updated Type